Time;durP1;ratioP1;P1;durP2;ratioP2;P2;SDS_P1;SDS_P2;PMS_P1;PMS_P2;Temp;Humidity;BMP_temperature;BMP_pressure;BME280_temperature;BME280_humidity;BME280_pressure;Samples;Min_cycle;Max_cycle;Signal;HPM_P1;HPM_P2
2022/07/02 00:00:59;;;;;;;3.38;3.03;;;13.00;99.90;;;13.67;100.00;98601.69;5219463;28;20201;-59
2022/07/02 00:03:36;;;;;;;4.38;3.17;;;13.10;99.90;;;13.64;100.00;98606.66;5220610;28;20205;-61
2022/07/02 00:06:13;;;;;;;2.97;2.83;;;13.10;99.90;;;13.64;100.00;98601.53;5219482;28;20319;-61
2022/07/02 00:08:48;;;;;;;2.70;2.50;;;13.10;99.90;;;13.64;100.00;98604.97;5221310;28;20208;-61
2022/07/02 00:11:22;;;;;;;3.65;3.35;;;13.10;99.90;;;13.59;100.00;98602.94;5220764;28;20635;-60
2022/07/02 00:13:56;;;;;;;3.33;3.03;;;13.00;99.90;;;13.61;100.00;98601.38;5214135;28;20239;-62
2022/07/02 00:16:29;;;;;;;3.55;2.60;;;12.90;99.90;;;13.59;100.00;98603.84;5217447;28;20217;-61
2022/07/02 00:19:03;;;;;;;3.47;3.17;;;12.90;99.90;;;13.51;100.00;98605.09;5219250;28;20202;-59
2022/07/02 00:21:39;;;;;;;3.58;3.28;;;12.90;99.90;;;13.49;100.00;98607.56;5215381;28;20197;-60
2022/07/02 00:24:14;;;;;;;3.50;3.30;;;12.90;99.90;;;13.50;100.00;98608.44;5217945;28;20199;-62
2022/07/02 00:26:54;;;;;;;2.88;2.67;;;12.90;99.90;;;13.45;100.00;98608.19;5220260;28;20640;-61
2022/07/02 00:29:35;;;;;;;2.83;2.65;;;12.80;99.90;;;13.32;100.00;98600.56;5217645;28;20200;-61
2022/07/02 00:32:09;;;;;;;3.47;3.22;;;12.60;99.90;;;13.20;100.00;98597.25;5216611;28;20255;-60
2022/07/02 00:34:45;;;;;;;2.95;2.75;;;12.60;99.90;;;13.14;100.00;98595.22;5215085;28;20213;-61
2022/07/02 00:37:21;;;;;;;3.03;2.83;;;12.50;99.90;;;13.13;100.00;98600.25;5217497;28;20815;-62
2022/07/02 00:39:56;;;;;;;3.03;2.83;;;12.50;99.90;;;13.14;100.00;98602.03;5211977;28;20658;-61
2022/07/02 00:42:30;;;;;;;3.30;3.10;;;12.40;99.90;;;13.08;100.00;98598.31;5217158;28;20238;-61
2022/07/02 00:45:05;;;;;;;4.20;2.88;;;12.40;99.90;;;12.98;100.00;98595.97;5216471;28;20603;-61
2022/07/02 00:47:41;;;;;;;3.20;3.00;;;12.30;99.90;;;12.97;100.00;98598.47;5217209;28;20200;-61
2022/07/02 00:50:14;;;;;;;3.00;2.80;;;12.30;99.90;;;13.05;100.00;98602.38;5217341;28;20428;-61
2022/07/02 00:52:47;;;;;;;3.60;3.20;;;12.30;99.90;;;13.04;100.00;98606.59;5215336;28;20213;-61
2022/07/02 00:55:21;;;;;;;3.40;3.10;;;12.40;99.90;;;13.08;100.00;98602.56;5218995;28;20266;-59
2022/07/02 00:57:55;;;;;;;3.67;3.47;;;12.60;99.90;;;13.12;100.00;98601.94;5217527;28;20216;-60
2022/07/02 01:00:28;;;;;;;3.50;3.20;;;12.60;99.90;;;13.17;100.00;98613.38;5219531;28;20201;-60
2022/07/02 01:03:03;;;;;;;3.10;2.90;;;12.60;99.90;;;13.19;100.00;98611.78;5217768;28;20247;-59
2022/07/02 01:05:36;;;;;;;2.88;2.78;;;12.70;99.90;;;13.21;100.00;98601.59;5217151;28;20228;-60
2022/07/02 01:11:02;;;;;;;2.80;2.70;;;12.60;99.90;;;13.19;100.00;98600.59;5213958;28;20198;-60
2022/07/02 01:13:36;;;;;;;2.65;2.45;;;12.60;99.90;;;13.20;100.00;98597.25;5220643;28;20197;-59
2022/07/02 01:16:09;;;;;;;3.10;2.38;;;12.60;99.90;;;13.16;100.00;98596.19;5213914;28;20628;-61
2022/07/02 01:18:42;;;;;;;3.47;2.55;;;12.60;99.90;;;13.17;100.00;98602.22;5214514;28;20654;-61
2022/07/02 01:21:15;;;;;;;2.40;2.30;;;12.50;99.90;;;13.15;100.00;98596.09;5215276;28;20628;-60
2022/07/02 01:23:50;;;;;;;2.47;2.38;;;12.50;99.90;;;13.14;100.00;98596.91;5217662;28;20205;-59
2022/07/02 01:26:23;;;;;;;3.40;2.80;;;12.50;99.90;;;13.08;100.00;98594.88;5218554;28;20220;-60
2022/07/02 01:28:56;;;;;;;2.83;2.63;;;12.50;99.90;;;13.03;100.00;98594.59;5218118;28;20243;-61
2022/07/02 01:31:29;;;;;;;3.47;3.17;;;12.40;99.90;;;12.93;100.00;98592.25;5218167;28;20614;-61
2022/07/02 01:34:02;;;;;;;3.22;2.92;;;12.30;99.90;;;13.00;100.00;98596.97;5217397;28;20674;-60
2022/07/02 01:36:37;;;;;;;3.42;3.22;;;12.40;99.90;;;12.95;100.00;98595.81;5215997;28;20218;-60
2022/07/02 01:39:11;;;;;;;3.63;3.40;;;12.30;99.90;;;12.89;100.00;98595.44;5208041;28;20586;-61
2022/07/02 01:41:44;;;;;;;3.60;3.35;;;12.30;99.90;;;12.88;100.00;98591.13;5215371;28;20257;-60
2022/07/02 01:44:17;;;;;;;3.58;3.28;;;12.30;99.90;;;12.87;100.00;98591.88;5212625;28;20227;-60
2022/07/02 01:46:51;;;;;;;3.88;3.55;;;12.30;99.90;;;12.88;100.00;98591.13;5215875;28;20213;-61
2022/07/02 01:49:24;;;;;;;3.38;3.10;;;12.30;99.90;;;12.83;100.00;98589.94;5219018;28;20681;-60
2022/07/02 01:51:57;;;;;;;3.47;3.28;;;12.20;99.90;;;12.77;100.00;98589.59;5216899;28;20227;-60
2022/07/02 01:54:32;;;;;;;3.42;3.22;;;12.10;99.90;;;12.66;100.00;98593.19;5217339;28;20322;-61
2022/07/02 01:57:07;;;;;;;3.35;3.15;;;12.00;99.90;;;12.60;100.00;98599.69;5212936;28;20244;-61
2022/07/02 01:59:40;;;;;;;3.40;3.20;;;11.90;99.90;;;12.57;100.00;98602.06;5216447;28;20708;-59
2022/07/02 02:02:13;;;;;;;3.40;2.63;;;11.90;99.90;;;12.56;100.00;98597.75;5216200;28;20213;-60
2022/07/02 02:04:46;;;;;;;3.63;3.00;;;12.00;99.90;;;12.54;100.00;98593.31;5215682;28;20694;-59
2022/07/02 02:07:33;;;;;;;3.15;2.95;;;11.90;99.90;;;12.56;100.00;98600.31;5237518;27;20676;-59
2022/07/02 02:10:08;;;;;;;3.28;3.08;;;12.00;99.90;;;12.63;100.00;98596.44;5215523;28;20255;-60
2022/07/02 02:12:41;;;;;;;3.47;3.28;;;12.10;99.90;;;12.63;100.00;98594.75;5217189;28;20537;-60
2022/07/02 02:15:15;;;;;;;3.40;3.20;;;12.00;99.90;;;12.65;100.00;98599.06;5214017;28;20233;-59
2022/07/02 02:17:48;;;;;;;3.50;3.30;;;12.00;99.90;;;12.60;100.00;98602.25;5222000;28;20194;-58
2022/07/02 02:20:21;;;;;;;3.50;3.30;;;12.00;99.90;;;12.64;100.00;98598.19;5217864;28;20673;-59
2022/07/02 02:22:55;;;;;;;3.17;2.97;;;12.00;99.90;;;12.59;100.00;98599.59;5214847;28;20244;-59
2022/07/02 02:25:29;;;;;;;3.58;3.22;;;12.00;99.90;;;12.61;100.00;98600.56;5216457;28;20229;-58
2022/07/02 02:28:02;;;;;;;3.80;3.60;;;12.00;99.90;;;12.60;100.00;98602.25;5213565;28;20197;-60
2022/07/02 02:30:35;;;;;;;3.90;3.60;;;12.00;99.90;;;12.60;100.00;98589.44;5218475;28;20668;-59
2022/07/02 02:33:08;;;;;;;3.55;3.35;;;12.00;99.90;;;12.53;100.00;98599.22;5218222;28;20197;-60
2022/07/02 02:35:41;;;;;;;3.70;3.40;;;11.90;99.90;;;12.43;100.00;98595.22;5213928;28;20225;-60
2022/07/02 02:38:16;;;;;;;3.75;3.45;;;11.80;99.90;;;12.42;100.00;98589.97;5215032;28;20255;-60
2022/07/02 02:40:49;;;;;;;3.55;3.25;;;11.80;99.90;;;12.41;100.00;98594.22;5218221;28;20253;-58
2022/07/02 02:43:22;;;;;;;3.40;3.20;;;11.80;99.90;;;12.35;100.00;98597.28;5216776;28;20253;-59
2022/07/02 02:45:55;;;;;;;3.88;3.67;;;11.70;99.90;;;12.30;100.00;98595.25;5216615;28;20225;-60
2022/07/02 02:48:29;;;;;;;4.10;3.70;;;11.70;99.90;;;12.37;100.00;98602.53;5217204;28;20209;-59
2022/07/02 02:51:04;;;;;;;3.90;3.58;;;11.80;99.90;;;12.29;100.00;98596.91;5214116;28;20232;-59
2022/07/02 02:53:38;;;;;;;3.63;3.42;;;11.70;99.90;;;12.32;100.00;98588.53;5216227;28;20193;-58
2022/07/02 02:56:12;;;;;;;3.58;3.33;;;11.70;99.90;;;12.31;100.00;98597.03;5212561;28;20750;-60
2022/07/02 02:58:45;;;;;;;3.42;3.17;;;11.70;99.90;;;12.30;100.00;98593.56;5218245;28;20653;-59
2022/07/02 03:01:18;;;;;;;3.88;3.58;;;11.70;99.90;;;12.25;100.00;98594.09;5215563;28;20225;-58
2022/07/02 03:03:52;;;;;;;3.40;3.20;;;11.70;99.90;;;12.26;100.00;98593.28;5217294;28;20205;-59
2022/07/02 03:06:25;;;;;;;3.90;3.60;;;11.60;99.90;;;12.21;100.00;98594.69;5211034;28;20253;-59
2022/07/02 03:08:59;;;;;;;3.67;3.38;;;11.60;99.90;;;12.14;100.00;98603.66;5216009;28;20224;-58
2022/07/02 03:11:33;;;;;;;3.83;3.63;;;11.50;99.90;;;12.14;100.00;98604.53;5216386;28;20603;-58
2022/07/02 03:14:06;;;;;;;4.00;3.60;;;11.50;99.90;;;12.04;100.00;98599.63;5215675;28;20209;-59
2022/07/02 03:16:39;;;;;;;3.75;3.50;;;11.40;99.90;;;12.08;100.00;98604.16;5212453;28;20218;-57
2022/07/02 03:19:13;;;;;;;4.35;3.92;;;11.40;99.90;;;12.09;100.00;98602.47;5199714;28;20307;-58
2022/07/02 03:21:46;;;;;;;3.22;3.03;;;11.40;99.90;;;12.07;100.00;98606.63;5204792;28;20661;-60
2022/07/02 03:24:20;;;;;;;3.60;3.30;;;11.40;99.90;;;12.04;100.00;98604.75;5201598;28;20202;-60
2022/07/02 03:26:53;;;;;;;3.53;3.22;;;11.40;99.90;;;12.04;100.00;98611.56;5202476;28;20676;-58
2022/07/02 03:29:29;;;;;;;3.35;3.15;;;11.40;99.90;;;11.98;100.00;98616.28;5201573;28;20236;-57
2022/07/02 03:32:02;;;;;;;3.38;3.17;;;11.40;99.90;;;11.97;100.00;98609.41;5202108;28;20244;-60
2022/07/02 03:34:36;;;;;;;3.78;3.47;;;11.40;99.90;;;11.93;100.00;98601.53;5205051;28;20577;-59
2022/07/02 03:37:09;;;;;;;4.03;3.60;;;11.30;99.90;;;11.94;100.00;98607.53;5202994;28;20610;-59
2022/07/02 03:39:44;;;;;;;4.10;3.80;;;11.40;99.90;;;11.94;100.00;98604.97;5200636;28;20202;-59
2022/07/02 03:42:17;;;;;;;3.78;3.47;;;11.30;99.90;;;11.91;100.00;98599.66;5200983;28;20579;-60
2022/07/02 03:44:50;;;;;;;3.63;3.42;;;11.30;99.90;;;11.93;100.00;98609.22;5202512;28;20292;-56
2022/07/02 03:47:23;;;;;;;3.90;3.70;;;11.30;99.90;;;12.00;100.00;98607.03;5201386;28;20248;-60
2022/07/02 03:49:57;;;;;;;3.92;3.42;;;11.40;99.90;;;12.04;100.00;98609.88;5206543;28;20198;-60
2022/07/02 03:52:30;;;;;;;3.65;3.40;;;11.40;99.90;;;12.12;100.00;98611.25;5205172;28;20247;-61
2022/07/02 03:55:05;;;;;;;4.18;3.78;;;11.50;99.90;;;12.17;100.00;98620.13;5201810;28;20596;-59
2022/07/02 03:57:39;;;;;;;4.40;3.72;;;11.60;99.90;;;12.18;100.00;98621.00;5201219;28;20244;-60
2022/07/02 04:00:13;;;;;;;3.60;3.40;;;11.60;99.90;;;12.23;100.00;98618.72;5201893;28;20210;-59
2022/07/02 04:02:46;;;;;;;4.18;3.85;;;11.60;99.90;;;12.16;100.00;98622.56;5201708;28;20193;-60
2022/07/02 04:05:19;;;;;;;4.32;4.03;;;11.50;99.90;;;12.22;100.00;98622.97;5208513;28;20233;-60
2022/07/02 04:07:52;;;;;;;4.47;4.07;;;11.60;99.90;;;12.28;100.00;98619.91;5207935;28;20206;-60
2022/07/02 04:10:27;;;;;;;4.38;3.97;;;11.70;99.90;;;12.30;100.00;98619.19;5202561;28;20601;-59
2022/07/02 04:13:01;;;;;;;4.22;3.65;;;11.80;99.90;;;12.23;100.00;98613.59;5205916;28;20263;-60
2022/07/02 04:15:35;;;;;;;4.22;3.92;;;11.70;99.90;;;12.28;100.00;98619.91;5201576;28;20705;-59
2022/07/02 04:18:08;;;;;;;4.05;3.75;;;11.70;99.90;;;12.31;100.00;98625.22;5201165;28;20252;-60
2022/07/02 04:20:41;;;;;;;4.38;4.07;;;11.70;99.90;;;12.31;100.00;98620.09;5206244;28;20213;-60
2022/07/02 04:23:14;;;;;;;4.07;3.80;;;11.70;99.90;;;12.39;100.00;98622.34;5198491;28;20202;-59
2022/07/02 04:25:49;;;;;;;4.60;4.20;;;11.80;99.90;;;12.33;100.00;98626.19;5201974;28;20214;-60
2022/07/02 04:28:23;;;;;;;3.92;3.63;;;11.80;99.90;;;12.41;100.00;98627.56;5199752;28;20233;-59
2022/07/02 04:30:56;;;;;;;3.92;3.67;;;11.90;99.90;;;12.49;100.00;98621.22;5200019;28;20263;-59
2022/07/02 04:33:29;;;;;;;4.43;4.03;;;11.90;99.90;;;12.52;100.00;98620.53;5201840;28;20210;-60
2022/07/02 04:36:05;;;;;;;4.68;4.13;;;11.90;99.90;;;12.56;100.00;98620.84;5201051;28;20222;-60
2022/07/02 04:38:39;;;;;;;4.68;4.28;;;12.00;99.90;;;12.63;100.00;98627.22;5200996;28;20197;-59
2022/07/02 04:41:16;;;;;;;4.00;3.70;;;12.10;99.90;;;12.69;100.00;98626.69;5194593;28;20710;-59
2022/07/02 04:43:51;;;;;;;4.22;3.92;;;12.10;99.90;;;12.79;99.99;98626.44;5201543;28;20711;-59
2022/07/02 04:46:26;;;;;;;4.25;3.95;;;12.20;99.90;;;13.04;100.00;98634.84;5198199;28;20230;-59
2022/07/02 04:49:01;;;;;;;3.83;3.53;;;12.50;99.90;;;13.81;100.00;98628.19;5201657;28;20197;-60
2022/07/02 04:51:35;;;;;;;3.70;3.40;;;13.30;99.90;;;14.69;93.98;98623.63;5198089;28;20615;-59
2022/07/02 04:54:08;;;;;;;4.45;3.60;;;14.20;99.90;;;15.65;88.93;98620.84;5200491;28;20289;-60
2022/07/02 04:56:43;;;;;;;4.10;3.00;;;15.00;99.90;;;16.45;83.62;98616.91;5199356;28;20267;-60
2022/07/02 04:59:16;;;;;;;3.53;3.22;;;15.60;99.90;;;17.20;78.68;98622.03;5203979;28;20262;-60
2022/07/02 05:01:51;;;;;;;3.10;2.90;;;16.10;99.90;;;17.83;76.07;98620.41;5189682;28;20237;-58
2022/07/02 05:04:24;;;;;;;3.13;2.92;;;16.60;99.90;;;18.31;72.58;98615.41;5200311;28;20205;-60
2022/07/02 05:06:58;;;;;;;3.08;2.80;;;17.00;99.90;;;18.54;70.52;98618.91;5193323;28;20225;-60
2022/07/02 05:09:31;;;;;;;2.90;2.80;;;17.20;99.90;;;18.51;71.51;98623.94;5191212;28;20297;-60
2022/07/02 05:12:08;;;;;;;3.15;2.95;;;17.20;99.90;;;18.90;68.29;98619.38;5192838;28;20193;-59
2022/07/02 05:14:41;;;;;;;3.05;2.75;;;17.50;99.90;;;19.26;68.49;98613.75;5199796;28;20217;-60
2022/07/02 05:17:15;;;;;;;4.05;3.20;;;17.70;99.90;;;19.58;67.43;98616.56;5200638;28;20195;-60
2022/07/02 05:19:48;;;;;;;3.28;3.05;;;18.00;99.90;;;19.95;65.33;98623.00;5201624;28;20617;-61
2022/07/02 05:22:21;;;;;;;3.10;2.60;;;18.20;99.90;;;20.15;63.89;98616.75;5202516;28;20344;-59
2022/07/02 05:24:54;;;;;;;3.75;2.80;;;18.20;99.90;;;20.43;63.80;98613.28;5196838;28;20653;-61
2022/07/02 05:27:29;;;;;;;3.13;2.92;;;18.40;99.90;;;20.47;63.63;98611.66;5205508;28;20210;-58
2022/07/02 05:30:02;;;;;;;2.85;2.53;;;18.70;99.90;;;20.50;62.78;98613.47;5201428;28;20201;-61
2022/07/02 05:32:35;;;;;;;3.63;2.92;;;18.60;99.90;;;20.34;63.93;98612.09;5200737;28;20692;-60
2022/07/02 05:35:09;;;;;;;3.30;3.00;;;18.50;99.90;;;20.62;63.46;98609.53;5198791;28;20240;-61
2022/07/02 05:37:42;;;;;;;2.97;2.78;;;18.70;99.90;;;21.11;60.92;98617.84;5208663;28;20201;-61
2022/07/02 05:40:16;;;;;;;2.60;2.50;;;19.10;99.90;;;21.00;61.33;98609.72;5202079;28;20252;-58
2022/07/02 05:42:50;;;;;;;4.00;2.75;;;19.20;99.90;;;20.93;62.77;98621.69;5206792;28;20216;-61
2022/07/02 05:45:23;;;;;;;2.60;2.40;;;19.20;99.90;;;21.19;60.33;98623.25;5199742;28;20232;-61
2022/07/02 05:47:57;;;;;;;2.78;2.58;;;19.20;99.90;;;21.36;61.20;98615.09;5205403;28;20644;-60
2022/07/02 05:50:30;;;;;;;2.80;2.60;;;19.30;99.90;;;21.15;62.39;98611.91;5202484;28;20674;-61
2022/07/02 05:53:03;;;;;;;2.42;2.22;;;19.30;99.90;;;21.33;61.59;98606.31;5203243;28;20198;-60
2022/07/02 05:55:36;;;;;;;3.45;2.40;;;19.50;99.90;;;21.63;60.39;98605.34;5203961;28;20275;-61
2022/07/02 05:58:12;;;;;;;3.22;2.38;;;19.70;99.90;;;21.96;58.63;98614.00;5206938;28;20193;-60
2022/07/02 06:00:45;;;;;;;3.65;2.45;;;19.80;99.90;;;22.03;59.50;98613.31;5200613;28;20194;-60
2022/07/02 06:03:18;;;;;;;2.20;1.98;;;19.80;99.90;;;22.24;59.70;98607.75;5197650;28;20206;-60
2022/07/02 06:08:43;;;;;;;2.20;2.00;;;20.20;99.90;;;22.78;57.70;98613.22;5196121;28;20653;-61
2022/07/02 06:11:16;;;;;;;2.13;2.00;;;20.30;99.90;;;22.83;57.71;98614.22;5198734;28;20197;-60
2022/07/02 06:13:50;;;;;;;2.63;2.10;;;20.40;99.90;;;23.03;56.99;98619.88;5201595;28;20252;-61
2022/07/02 06:16:24;;;;;;;2.38;1.95;;;20.50;99.90;;;23.03;57.05;98617.25;5200913;28;20224;-61
2022/07/02 06:18:57;;;;;;;1.90;1.80;;;20.30;99.90;;;23.26;55.84;98617.69;5197098;28;20198;-61
2022/07/02 06:21:31;;;;;;;2.50;1.90;;;20.50;99.90;;;23.44;55.27;98622.41;5197976;28;20629;-60
2022/07/02 06:24:05;;;;;;;2.03;1.80;;;20.70;99.90;;;23.54;55.76;98611.25;5199696;28;20447;-60
2022/07/02 06:26:39;;;;;;;1.80;1.70;;;21.00;99.90;;;23.59;55.94;98615.72;5197880;28;20217;-61
2022/07/02 06:29:13;;;;;;;2.03;1.67;;;21.10;99.90;;;23.45;56.17;98611.09;5193648;28;20638;-61
2022/07/02 06:31:46;;;;;;;1.80;1.70;;;21.20;99.90;;;23.84;54.51;98616.19;5199503;28;20339;-61
2022/07/02 06:34:20;;;;;;;2.25;1.73;;;21.50;99.90;;;24.08;52.21;98615.66;5199849;28;20197;-61
2022/07/02 06:36:54;;;;;;;1.52;1.42;;;21.80;99.90;;;24.20;53.44;98605.41;5199012;28;20254;-61
2022/07/02 06:39:31;;;;;;;1.92;1.67;;;21.80;99.90;;;24.52;50.81;98606.75;5199749;28;20208;-60
2022/07/02 06:42:22;;;;;;;2.13;1.58;;;22.20;99.90;;;24.82;49.89;98612.38;5197327;28;20653;-61
2022/07/02 06:44:59;;;;;;;1.70;1.60;;;22.60;99.90;;;25.35;49.08;98613.88;5194923;28;20595;-61
2022/07/02 06:47:32;;;;;;;1.30;1.20;;;22.80;99.90;;;25.71;47.98;98613.34;5198315;28;20201;-61
2022/07/02 06:50:06;;;;;;;1.48;1.38;;;23.20;99.20;;;25.77;48.79;98620.41;5196952;28;20197;-61
2022/07/02 06:52:42;;;;;;;1.80;1.23;;;23.30;99.40;;;25.46;49.40;98608.75;5197348;28;20546;-60
2022/07/02 06:55:15;;;;;;;1.85;1.27;;;23.50;98.60;;;25.59;47.59;98608.88;5208051;28;20270;-63
2022/07/02 06:57:49;;;;;;;1.33;1.23;;;23.90;97.10;;;26.11;47.32;98607.59;5212566;28;20209;-60
2022/07/02 07:00:23;;;;;;;1.38;1.30;;;24.10;97.20;;;26.31;46.42;98605.13;5206114;28;20586;-61
2022/07/02 07:02:57;;;;;;;1.50;1.10;;;24.40;96.30;;;26.39;45.87;98612.16;5205115;28;20287;-60
2022/07/02 07:05:32;;;;;;;1.88;1.20;;;24.50;95.70;;;26.25;46.68;98600.72;5205756;28;20665;-62
2022/07/02 07:08:05;;;;;;;1.30;1.30;;;24.50;95.90;;;26.69;45.63;98593.09;5201818;28;20283;-58
2022/07/02 07:10:39;;;;;;;1.10;1.10;;;24.60;95.70;;;27.12;43.88;98597.63;5202404;28;20239;-60
2022/07/02 07:13:12;;;;;;;0.90;0.90;;;24.90;95.00;;;27.16;44.61;98594.19;5204434;28;20201;-62
2022/07/02 07:15:47;;;;;;;1.23;1.13;;;25.20;94.60;;;26.84;44.59;98594.94;5203253;28;20224;-62
2022/07/02 07:18:20;;;;;;;1.00;1.00;;;25.00;94.60;;;27.24;41.92;98602.94;5208582;28;20283;-60
2022/07/02 07:20:53;;;;;;;0.90;0.90;;;25.20;92.80;;;27.13;42.63;98602.03;5207834;28;20549;-60
2022/07/02 07:23:26;;;;;;;1.35;1.00;;;25.20;92.90;;;27.05;43.51;98601.13;5207112;28;20216;-61
2022/07/02 07:26:00;;;;;;;2.95;1.10;;;25.10;93.50;;;27.57;42.59;98601.25;5205992;28;20225;-61
2022/07/02 07:28:33;;;;;;;1.17;0.93;;;25.50;93.00;;;27.65;42.33;98598.66;5204614;28;20213;-61
2022/07/02 07:31:08;;;;;;;1.00;1.00;;;25.60;92.90;;;28.19;40.78;98603.03;5201849;28;20205;-61
2022/07/02 07:33:41;;;;;;;0.90;0.90;;;26.10;92.00;;;28.06;40.92;98591.63;5201743;28;20218;-62
2022/07/02 07:36:14;;;;;;;1.58;0.90;;;26.00;92.20;;;28.11;41.29;98593.41;5200622;28;20283;-61
2022/07/02 07:38:49;;;;;;;0.80;0.80;;;26.20;91.70;;;28.35;37.75;98592.47;5201027;28;20191;-62
2022/07/02 07:41:23;;;;;;;1.73;0.90;;;26.20;89.30;;;28.25;38.81;98597.75;5203821;28;20205;-62
2022/07/02 07:43:56;;;;;;;2.30;0.90;;;26.10;88.90;;;28.17;36.95;98593.41;5199349;28;20207;-62
2022/07/02 07:46:32;;;;;;;0.93;0.90;;;26.00;87.10;;;27.92;40.21;98597.78;5212673;28;20224;-62
2022/07/02 07:49:05;;;;;;;1.35;0.90;;;25.90;90.60;;;27.74;39.54;98589.00;5212266;28;20576;-61
2022/07/02 07:51:38;;;;;;;1.73;0.80;;;25.90;88.90;;;27.79;38.26;98582.03;5207347;28;20247;-62
2022/07/02 07:54:11;;;;;;;0.80;0.80;;;25.80;86.80;;;28.57;36.32;98582.81;5204851;28;20197;-62
2022/07/02 07:56:44;;;;;;;1.10;0.90;;;26.60;85.00;;;28.04;35.98;98579.38;5206608;28;20230;-61
2022/07/02 07:59:18;;;;;;;1.02;0.90;;;26.30;83.20;;;28.12;36.81;98575.00;5207569;28;20205;-62
2022/07/02 08:01:52;;;;;;;0.90;0.90;;;26.10;84.70;;;27.99;38.03;98574.16;5207638;28;20244;-62
2022/07/02 08:04:27;;;;;;;1.00;0.85;;;26.30;86.00;;;29.03;37.37;98567.72;5209822;28;20211;-62
2022/07/02 08:07:00;;;;;;;1.30;1.10;;;26.30;88.00;;;29.09;35.80;98572.94;5207313;28;20213;-62
2022/07/02 08:09:33;;;;;;;1.20;0.75;;;26.70;85.10;;;29.07;33.64;98572.06;5204541;28;20271;-62
2022/07/02 08:12:07;;;;;;;1.13;0.80;;;26.60;79.70;;;29.14;33.42;98570.28;5210474;28;20237;-62
2022/07/02 08:14:40;;;;;;;0.88;0.88;;;26.30;81.00;;;28.79;34.56;98575.69;5207525;28;20623;-60
2022/07/02 08:17:16;;;;;;;1.15;0.80;;;26.20;81.90;;;29.31;32.34;98567.56;5207718;28;20395;-60
2022/07/02 08:19:49;;;;;;;1.02;0.80;;;26.50;78.50;;;29.69;32.38;98553.25;5204200;28;20243;-63
2022/07/02 08:22:23;;;;;;;1.00;0.60;;;26.90;78.50;;;29.82;31.77;98562.81;5207569;28;20641;-61
2022/07/02 08:24:56;;;;;;;0.85;0.85;;;27.10;77.60;;;29.77;31.95;98568.09;5206161;28;20221;-63
2022/07/02 08:27:29;;;;;;;0.68;0.68;;;27.50;75.80;;;28.94;33.66;98562.47;5204926;28;20267;-62
2022/07/02 08:30:03;;;;;;;1.02;0.70;;;27.30;78.30;;;28.80;31.97;98562.53;5206277;28;20213;-62
2022/07/02 08:32:39;;;;;;;0.70;0.70;;;27.30;74.80;;;28.59;35.22;98566.13;5207091;28;20206;-60
2022/07/02 08:35:18;;;;;;;1.38;0.80;;;27.10;79.20;;;28.25;33.11;98555.69;5203637;28;20307;-62
2022/07/02 08:37:52;;;;;;;1.05;0.70;;;26.80;75.20;;;28.50;33.04;98547.72;5204954;28;20255;-63
2022/07/02 08:40:27;;;;;;;1.20;0.90;;;27.30;73.20;;;28.51;33.22;98560.03;5207363;28;20201;-62
2022/07/02 08:43:01;;;;;;;1.40;1.00;;;27.30;74.80;;;28.05;34.00;98555.72;5206186;28;20204;-62
2022/07/02 08:45:37;;;;;;;1.00;1.00;;;27.20;74.50;;;28.05;33.47;98563.63;5206534;28;20224;-62
2022/07/02 08:48:13;;;;;;;1.15;1.05;;;27.10;73.60;;;27.96;34.17;98557.50;5200373;28;20189;-62
2022/07/02 08:50:48;;;;;;;1.33;0.93;;;26.80;75.90;;;27.79;35.46;98545.25;5205552;28;20631;-62
2022/07/02 08:53:21;;;;;;;1.85;1.10;;;26.70;76.50;;;27.56;33.49;98547.84;5206456;28;20208;-62
2022/07/02 08:55:55;;;;;;;1.05;1.05;;;26.80;72.30;;;26.92;35.08;98545.94;5206297;28;20232;-62
2022/07/02 08:58:29;;;;;;;1.13;0.95;;;26.50;74.40;;;27.44;34.39;98524.19;5206671;28;20205;-62
2022/07/02 09:01:04;;;;;;;1.10;1.00;;;26.70;74.50;;;27.27;34.33;98534.72;5206750;28;20320;-62
2022/07/02 09:03:39;;;;;;;1.58;1.02;;;26.70;74.20;;;26.98;34.46;98536.34;5221432;28;20576;-60
2022/07/02 09:06:13;;;;;;;1.13;1.00;;;26.20;74.00;;;27.11;35.84;98536.38;5216258;28;20224;-62
2022/07/02 09:08:46;;;;;;;1.42;1.10;;;26.50;75.20;;;26.88;33.25;98530.22;5211244;28;20206;-62
2022/07/02 09:11:20;;;;;;;2.15;1.10;;;26.20;71.10;;;26.80;36.10;98522.31;5206125;28;20255;-62
2022/07/02 09:13:55;;;;;;;1.10;0.90;;;26.20;76.00;;;26.93;35.24;98518.88;5206027;28;20244;-62
2022/07/02 09:16:29;;;;;;;1.10;1.00;;;26.50;74.20;;;27.10;35.28;98505.78;5205807;28;20642;-62
2022/07/02 09:19:04;;;;;;;1.50;1.00;;;26.60;73.90;;;27.39;34.16;98503.19;5208201;28;20240;-62
2022/07/02 09:21:44;;;;;;;1.25;1.05;;;27.00;71.50;;;27.39;32.89;98507.59;5206908;28;20672;-61
2022/07/02 09:24:31;;;;;;;1.20;1.10;;;26.90;70.80;;;27.26;34.43;98511.94;5212493;28;20637;-61
2022/07/02 09:27:07;;;;;;;1.48;1.10;;;26.90;72.20;;;27.03;35.70;98518.88;5212392;28;20190;-60
2022/07/02 09:29:43;;;;;;;1.00;1.00;;;26.70;74.10;;;27.13;34.45;98510.16;5205666;28;20286;-62
2022/07/02 09:32:18;;;;;;;2.20;1.15;;;26.70;72.50;;;26.86;35.76;98506.59;5211897;28;20723;-62
2022/07/02 09:34:54;;;;;;;1.55;0.90;;;26.50;73.80;;;26.80;36.86;98505.69;5205550;28;20286;-62
2022/07/02 09:37:28;;;;;;;1.33;1.20;;;26.30;76.00;;;26.52;35.19;98501.22;5205647;28;20208;-62
2022/07/02 09:40:04;;;;;;;1.75;1.17;;;26.20;72.90;;;26.19;37.36;98501.06;5205657;28;20194;-62
2022/07/02 09:42:37;;;;;;;1.25;1.15;;;25.70;76.20;;;25.50;36.33;98505.84;5205643;28;20265;-62
2022/07/02 09:45:11;;;;;;;1.25;1.15;;;25.40;73.50;;;25.79;37.42;98498.19;5208255;28;20213;-62
2022/07/02 09:47:48;;;;;;;1.45;1.00;;;25.10;76.60;;;26.08;36.29;98503.63;5205756;28;20200;-62
2022/07/02 09:50:24;;;;;;;2.25;1.10;;;25.60;74.80;;;26.45;36.35;98503.81;5210639;28;20229;-62
2022/07/02 09:52:59;;;;;;;1.23;1.08;;;26.00;74.50;;;25.96;36.03;98493.97;5205772;28;20201;-62
2022/07/02 09:55:33;;;;;;;1.33;1.23;;;25.60;73.10;;;26.08;37.10;98508.88;5209068;28;20227;-62
2022/07/02 09:58:06;;;;;;;1.15;0.90;;;25.60;76.10;;;26.18;36.44;98505.44;5205151;28;20194;-62
2022/07/02 10:00:45;;;;;;;0.82;0.82;;;25.70;74.90;;;25.82;35.08;98511.31;5200993;28;20193;-61
2022/07/02 10:03:18;;;;;;;1.10;1.10;;;25.60;71.60;;;25.87;35.67;98507.00;5203511;28;20197;-61
2022/07/02 10:05:54;;;;;;;0.90;0.90;;;25.40;73.50;;;26.14;34.25;98508.03;5208495;28;20220;-62
2022/07/02 10:08:27;;;;;;;1.27;0.90;;;25.60;71.50;;;25.70;35.41;98517.34;5205543;28;20201;-62
2022/07/02 10:11:01;;;;;;;1.10;0.95;;;25.40;72.50;;;25.90;36.65;98509.66;5202725;28;20217;-62
2022/07/02 10:13:36;;;;;;;1.10;1.05;;;25.30;74.80;;;26.07;35.98;98501.88;5209238;28;20200;-62
2022/07/02 10:16:15;;;;;;;1.25;0.98;;;25.60;73.60;;;26.14;36.02;98505.41;5200836;28;20212;-62
2022/07/02 10:18:49;;;;;;;1.00;1.00;;;25.80;73.60;;;26.00;35.83;98506.19;5202471;28;20197;-62
2022/07/02 10:21:25;;;;;;;0.85;0.85;;;25.70;73.50;;;26.18;36.77;98500.19;5205208;28;20231;-62
2022/07/02 10:23:59;;;;;;;0.95;0.90;;;25.70;75.60;;;26.05;35.98;98501.00;5204375;28;20192;-62
2022/07/02 10:26:33;;;;;;;1.10;1.00;;;25.70;73.40;;;25.72;36.23;98493.75;5207706;28;20266;-62
2022/07/02 10:29:07;;;;;;;1.23;1.15;;;25.40;73.40;;;25.85;37.24;98477.28;5208772;28;20247;-62
2022/07/02 10:31:47;;;;;;;1.00;1.00;;;25.40;75.60;;;25.91;36.59;98485.19;5208740;28;20750;-61
2022/07/02 10:34:45;;;;;;;2.08;1.27;;;25.30;74.60;;;25.94;38.15;98487.81;5209860;28;20205;-61
2022/07/02 10:37:20;;;;;;;1.40;1.10;;;25.40;77.40;;;25.68;38.64;98468.44;5204518;28;20209;-62
2022/07/02 10:40:02;;;;;;;1.00;1.00;;;25.20;77.20;;;25.62;38.58;98462.28;5210052;28;20246;-62
2022/07/02 10:42:41;;;;;;;1.10;1.10;;;25.20;77.20;;;25.61;38.11;98460.53;5205472;28;20205;-61
2022/07/02 10:45:17;;;;;;;1.00;1.00;;;25.10;76.50;;;25.57;36.85;98474.44;5199785;28;20225;-60
2022/07/02 10:47:55;;;;;;;1.00;1.00;;;25.20;74.40;;;25.46;37.63;98457.78;5202617;28;20251;-61
2022/07/02 10:50:43;;;;;;;1.65;1.10;;;24.90;75.60;;;25.54;37.29;98463.09;5202875;28;20355;-63